Fresno Yosemite International Airport
KFAT : rendu visible

Aérodrome :











RETROUVEZ-NOUS SUR...

 
LOGIN :

S'inscrire | Disclaimer

   EN    FR    IT 

 









Légende :    VFR   VFR Marginal   IFR   IFR Intensif   IFR Très Intensif
Visi : 
Plafond : 
>= 8 km
>= 3000ft
5 à 8 km
1000 à 3000 ft
1500m à 5 km
500 à 1000 ft
800 à 1500m
200 à 500 ft
< 800m
< 200 ft
Symboles :   Orages  Brouillard  Fortes neiges  Fortes précipitations  Vent > 20 kt







- Altitude de l'aérodrome : 336 ft
- Code IATA : FAT


KFAT - Fresno Yosemite International

DERNIER METAR :
  • 170353Z 32007KT 10SM FEW060 21/07 A2992 RMK AO2 SLP129 T02110067

METARs EXPIRÉS :
  • 170253Z 32010KT 10SM FEW070 FEW120 22/06 A2991 RMK AO2 SLP124 T02170061 55002
  • 170153Z 32013KT 10SM FEW080 SCT120 BKN150 23/05 A2990 RMK AO2 PK WND 34027/0057 SLP123 FEW LRG CU OMTNS DSNT N-NE T02330050

TAF KFAT
Valide du 16 à 23h jusqu'au 18 à 00h UTC


162325Z 1623/1724 33016G26KT P6SM FEW040 BKN100
FM170600 31007KT P6SM SCT200
Pas de NOTAMs connus pour ce terrain.



MET'MAP, la Météo Aéronautique d'un coup d'oeil ! - Copyright ORBIFLY Décembre 2007 - Disclaimer

ORBIFLY MET'MAP TEAM :

Programmation & Développement : Alexandra Zaïnal
Conception & Développement : Baudouin d'Aumeries
Co-Programmation & Développement : Marc-Olivier Méhu
Soutien technique & logistique : Manuel Goepfert

Contact : metmap@orbifly.com




SOURCES & CREDITS :

   NOAA       Earth
Advisory